Time,TemperatureF,DewpointF,PressureIn,WindDirection,WindDirectionDegrees,WindSpeedMPH,WindSpeedGustMPH,Humidity,HourlyPrecipIn,Conditions,Clouds,dailyrainin,SoftwareType,DateUTC
2013-10-18 00:08:00,52.5,52.0,29.68,West,272,3.0,6.0,97,0.04,,,0.00,weatherlink.com 1.10,2013-10-18 04:08:00,
2013-10-18 00:24:00,52.6,52.0,29.68,WNW,283,3.0,7.0,97,0.07,,,0.03,weatherlink.com 1.10,2013-10-18 04:24:00,
2013-10-18 00:39:00,52.6,52.0,29.69,West,274,7.0,11.0,97,0.08,,,0.04,weatherlink.com 1.10,2013-10-18 04:39:00,
2013-10-18 00:54:00,52.3,51.0,29.70,WNW,286,5.0,10.0,96,0.06,,,0.05,weatherlink.com 1.10,2013-10-18 04:54:00,
2013-10-18 01:09:00,52.2,51.0,29.70,WNW,300,10.0,15.0,94,0.04,,,0.05,weatherlink.com 1.10,2013-10-18 05:09:00,
2013-10-18 01:24:00,51.8,50.0,29.70,WNW,303,9.0,13.0,94,0.03,,,0.06,weatherlink.com 1.10,2013-10-18 05:24:00,
2013-10-18 01:39:00,51.4,50.0,29.70,West,271,7.0,10.0,94,0.02,,,0.06,weatherlink.com 1.10,2013-10-18 05:39:00,
2013-10-18 01:54:00,51.3,50.0,29.71,West,281,4.0,9.0,95,0.01,,,0.06,weatherlink.com 1.10,2013-10-18 05:54:00,
2013-10-18 02:09:00,51.4,50.0,29.71,West,268,5.0,9.0,95,0.01,,,0.06,weatherlink.com 1.10,2013-10-18 06:09:00,
2013-10-18 02:24:00,51.5,50.0,29.71,WNW,286,9.0,10.0,95,0.00,,,0.06,weatherlink.com 1.10,2013-10-18 06:24:00,
2013-10-18 02:39:00,51.4,50.0,29.71,West,261,7.0,11.0,94,0.00,,,0.06,weatherlink.com 1.10,2013-10-18 06:39:00,
2013-10-18 02:54:00,50.8,49.0,29.71,West,262,6.0,9.0,93,0.00,,,0.06,weatherlink.com 1.10,2013-10-18 06:54:00,
2013-10-18 03:09:00,50.6,49.0,29.71,WSW,255,4.0,11.0,93,0.00,,,0.06,weatherlink.com 1.10,2013-10-18 07:09:00,
2013-10-18 03:24:00,50.7,49.0,29.71,West,265,6.0,13.0,93,0.00,,,0.06,weatherlink.com 1.10,2013-10-18 07:24:00,
2013-10-18 03:39:00,50.8,49.0,29.71,WSW,248,7.0,9.0,93,0.00,,,0.06,weatherlink.com 1.10,2013-10-18 07:39:00,
2013-10-18 03:54:00,50.9,49.0,29.72,West,274,5.0,14.0,92,0.00,,,0.06,weatherlink.com 1.10,2013-10-18 07:54:00,
2013-10-18 04:09:00,50.8,49.0,29.71,West,260,7.0,12.0,93,0.00,,,0.06,weatherlink.com 1.10,2013-10-18 08:09:00,
2013-10-18 04:24:00,50.7,49.0,29.72,WNW,293,6.0,13.0,93,0.00,,,0.06,weatherlink.com 1.10,2013-10-18 08:24:00,
2013-10-18 04:39:00,50.7,49.0,29.73,West,281,9.0,10.0,93,0.00,,,0.06,weatherlink.com 1.10,2013-10-18 08:39:00,
2013-10-18 04:54:00,50.5,49.0,29.73,WSW,258,6.0,11.0,93,0.00,,,0.06,weatherlink.com 1.10,2013-10-18 08:54:00,
2013-10-18 05:09:00,50.5,49.0,29.73,West,265,4.0,11.0,93,0.00,,,0.06,weatherlink.com 1.10,2013-10-18 09:09:00,
2013-10-18 05:24:00,50.3,48.0,29.73,West,273,5.0,13.0,93,0.00,,,0.06,weatherlink.com 1.10,2013-10-18 09:24:00,
2013-10-18 05:39:00,50.2,48.0,29.73,West,266,5.0,10.0,93,0.00,,,0.06,weatherlink.com 1.10,2013-10-18 09:39:00,
2013-10-18 05:54:00,50.1,48.0,29.74,WNW,284,7.0,11.0,92,0.00,,,0.06,weatherlink.com 1.10,2013-10-18 09:54:00,
2013-10-18 06:09:00,50.0,48.0,29.74,WSW,255,6.0,11.0,93,0.00,,,0.06,weatherlink.com 1.10,2013-10-18 10:09:00,
2013-10-18 06:24:00,50.0,48.0,29.75,SW,225,6.0,10.0,92,0.00,,,0.06,weatherlink.com 1.10,2013-10-18 10:24:00,
2013-10-18 06:39:00,49.6,47.0,29.75,WSW,253,5.0,9.0,92,0.00,,,0.06,weatherlink.com 1.10,2013-10-18 10:39:00,
2013-10-18 06:54:00,49.5,48.0,29.75,West,261,4.0,8.0,93,0.00,,,0.06,weatherlink.com 1.10,2013-10-18 10:54:00,
2013-10-18 07:09:00,48.9,47.0,29.75,West,261,4.0,5.0,93,0.00,,,0.06,weatherlink.com 1.10,2013-10-18 11:09:00,
2013-10-18 07:24:00,48.7,47.0,29.76,West,272,4.0,7.0,94,0.00,,,0.06,weatherlink.com 1.10,2013-10-18 11:24:00,
2013-10-18 07:40:00,49.1,47.0,29.77,WNW,287,3.0,7.0,93,0.00,,,0.06,weatherlink.com 1.10,2013-10-18 11:40:00,
2013-10-18 07:55:00,49.3,47.0,29.78,West,279,4.0,11.0,91,0.00,,,0.06,weatherlink.com 1.10,2013-10-18 11:55:00,
2013-10-18 08:10:00,50.0,47.0,29.78,West,273,8.0,11.0,88,0.00,,,0.06,weatherlink.com 1.10,2013-10-18 12:10:00,
2013-10-18 08:25:00,50.1,46.0,29.79,West,272,6.0,13.0,87,0.00,,,0.06,weatherlink.com 1.10,2013-10-18 12:25:00,
2013-10-18 08:40:00,50.3,47.0,29.79,West,269,5.0,16.0,87,0.00,,,0.06,weatherlink.com 1.10,2013-10-18 12:40:00,
2013-10-18 08:55:00,50.6,47.0,29.80,WNW,292,7.0,13.0,86,0.00,,,0.06,weatherlink.com 1.10,2013-10-18 12:55:00,
2013-10-18 09:10:00,51.8,48.0,29.81,WNW,301,10.0,14.0,85,0.00,,,0.06,weatherlink.com 1.10,2013-10-18 13:10:00,
2013-10-18 09:25:00,52.7,47.0,29.82,West,264,12.0,23.0,81,0.00,,,0.06,weatherlink.com 1.10,2013-10-18 13:25:00,
2013-10-18 09:40:00,52.9,47.0,29.82,West,262,7.0,18.0,80,0.00,,,0.06,weatherlink.com 1.10,2013-10-18 13:40:00,
2013-10-18 09:55:00,53.4,46.0,29.83,West,276,11.0,22.0,76,0.00,,,0.06,weatherlink.com 1.10,2013-10-18 13:55:00,
2013-10-18 10:10:00,52.9,40.0,29.84,West,274,16.0,20.0,63,0.00,,,0.06,weatherlink.com 1.10,2013-10-18 14:10:00,
2013-10-18 10:25:00,53.1,40.0,29.84,West,265,7.0,23.0,62,0.00,,,0.06,weatherlink.com 1.10,2013-10-18 14:25:00,
2013-10-18 10:40:00,53.4,40.0,29.84,NW,307,8.0,21.0,62,0.00,,,0.06,weatherlink.com 1.10,2013-10-18 14:40:00,
2013-10-18 10:55:00,53.7,43.0,29.84,NW,306,7.0,19.0,67,0.00,,,0.06,weatherlink.com 1.10,2013-10-18 14:55:00,
2013-10-18 11:10:00,53.3,43.0,29.85,West,264,8.0,23.0,67,0.00,,,0.06,weatherlink.com 1.10,2013-10-18 15:10:00,
2013-10-18 11:25:00,53.3,42.0,29.85,West,270,13.0,21.0,66,0.00,,,0.06,weatherlink.com 1.10,2013-10-18 15:25:00,
2013-10-18 11:40:00,53.4,42.0,29.86,WNW,301,17.0,21.0,66,0.00,,,0.06,weatherlink.com 1.10,2013-10-18 15:40:00,
2013-10-18 11:55:00,54.3,42.0,29.85,NW,310,7.0,21.0,63,0.00,,,0.06,weatherlink.com 1.10,2013-10-18 15:55:00,
2013-10-18 12:10:00,54.9,40.0,29.86,West,280,7.0,20.0,57,0.00,,,0.06,weatherlink.com 1.10,2013-10-18 16:10:00,
2013-10-18 12:25:00,54.8,41.0,29.86,West,280,9.0,21.0,60,0.00,,,0.06,weatherlink.com 1.10,2013-10-18 16:25:00,
2013-10-18 12:40:00,55.6,42.0,29.86,WNW,286,12.0,18.0,61,0.00,,,0.06,weatherlink.com 1.10,2013-10-18 16:40:00,
2013-10-18 12:55:00,54.7,40.0,29.85,WNW,300,9.0,18.0,58,0.00,,,0.06,weatherlink.com 1.10,2013-10-18 16:55:00,
2013-10-18 13:10:00,54.6,40.0,29.85,West,281,7.0,15.0,58,0.00,,,0.06,weatherlink.com 1.10,2013-10-18 17:10:00,
2013-10-18 13:25:00,56.0,42.0,29.85,West,276,13.0,16.0,59,0.00,,,0.06,weatherlink.com 1.10,2013-10-18 17:25:00,
2013-10-18 13:40:00,56.7,40.0,29.85,WSW,256,9.0,20.0,53,0.00,,,0.06,weatherlink.com 1.10,2013-10-18 17:40:00,
2013-10-18 13:55:00,56.4,40.0,29.85,WNW,283,10.0,18.0,54,0.00,,,0.06,weatherlink.com 1.10,2013-10-18 17:55:00,
2013-10-18 14:10:00,56.2,40.0,29.85,West,266,10.0,21.0,55,0.00,,,0.06,weatherlink.com 1.10,2013-10-18 18:10:00,
2013-10-18 14:25:00,56.6,41.0,29.85,WNW,293,11.0,19.0,57,0.00,,,0.06,weatherlink.com 1.10,2013-10-18 18:25:00,
2013-10-18 14:40:00,56.9,41.0,29.85,NW,318,11.0,16.0,55,0.00,,,0.06,weatherlink.com 1.10,2013-10-18 18:40:00,
2013-10-18 14:56:00,57.2,42.0,29.85,WNW,299,6.0,15.0,57,0.00,,,0.06,weatherlink.com 1.10,2013-10-18 18:56:00,
2013-10-18 15:11:00,57.9,41.0,29.85,WNW,290,7.0,14.0,53,0.00,,,0.06,weatherlink.com 1.10,2013-10-18 19:11:00,
2013-10-18 15:26:00,57.8,40.0,29.85,WNW,298,5.0,19.0,52,0.00,,,0.06,weatherlink.com 1.10,2013-10-18 19:26:00,
2013-10-18 15:41:00,57.2,39.0,29.85,West,267,9.0,18.0,52,0.00,,,0.06,weatherlink.com 1.10,2013-10-18 19:41:00,
2013-10-18 15:56:00,57.8,40.0,29.86,WNW,302,6.0,12.0,51,0.00,,,0.06,weatherlink.com 1.10,2013-10-18 19:56:00,
2013-10-18 16:11:00,58.9,41.0,29.86,West,279,7.0,16.0,51,0.00,,,0.06,weatherlink.com 1.10,2013-10-18 20:11:00,
2013-10-18 16:25:00,59.1,38.0,29.84,West,262,13.0,21.0,46,0.00,,,0.06,weatherlink.com 1.10,2013-10-18 20:25:00,
2013-10-18 16:40:00,58.5,39.0,29.85,WNW,297,14.0,21.0,48,0.00,,,0.06,weatherlink.com 1.10,2013-10-18 20:40:00,
2013-10-18 16:55:00,57.6,39.0,29.85,West,272,10.0,15.0,50,0.00,,,0.06,weatherlink.com 1.10,2013-10-18 20:55:00,
2013-10-18 17:10:00,57.7,39.0,29.85,WSW,253,3.0,12.0,51,0.00,,,0.06,weatherlink.com 1.10,2013-10-18 21:10:00,
2013-10-18 17:25:00,56.9,40.0,29.86,WNW,300,9.0,10.0,53,0.00,,,0.06,weatherlink.com 1.10,2013-10-18 21:25:00,
2013-10-18 17:40:00,55.7,41.0,29.86,West,272,9.0,9.0,58,0.00,,,0.06,weatherlink.com 1.10,2013-10-18 21:40:00,
2013-10-18 17:55:00,55.0,41.0,29.86,WSW,257,3.0,6.0,59,0.00,,,0.06,weatherlink.com 1.10,2013-10-18 21:55:00,
2013-10-18 18:10:00,54.6,41.0,29.86,West,276,3.0,7.0,60,0.00,,,0.06,weatherlink.com 1.10,2013-10-18 22:10:00,
2013-10-18 18:25:00,53.3,41.0,29.87,West,262,2.0,5.0,63,0.00,,,0.06,weatherlink.com 1.10,2013-10-18 22:25:00,
2013-10-18 18:40:00,52.3,42.0,29.87,West,264,0.0,2.0,67,0.00,,,0.06,weatherlink.com 1.10,2013-10-18 22:40:00,
2013-10-18 18:55:00,52.1,42.0,29.87,WSW,257,2.0,4.0,68,0.00,,,0.06,weatherlink.com 1.10,2013-10-18 22:55:00,
2013-10-18 19:10:00,51.6,42.0,29.87,West,262,2.0,3.0,70,0.00,,,0.06,weatherlink.com 1.10,2013-10-18 23:10:00,
2013-10-18 19:25:00,51.0,43.0,29.87,West,268,1.0,4.0,73,0.00,,,0.06,weatherlink.com 1.10,2013-10-18 23:25:00,
2013-10-18 19:40:00,50.6,43.0,29.87,West,265,1.0,2.0,75,0.00,,,0.06,weatherlink.com 1.10,2013-10-18 23:40:00,
2013-10-18 19:55:00,49.9,43.0,29.87,West,265,0.0,1.0,77,0.00,,,0.06,weatherlink.com 1.10,2013-10-18 23:55:00,
2013-10-18 20:10:00,49.1,43.0,29.87,West,265,0.0,0.0,79,0.00,,,0.06,weatherlink.com 1.10,2013-10-19 00:10:00,
2013-10-18 20:25:00,48.3,43.0,29.87,WSW,250,0.0,2.0,82,0.00,,,0.06,weatherlink.com 1.10,2013-10-19 00:25:00,
2013-10-18 20:40:00,48.0,43.0,29.88,WSW,250,0.0,0.0,83,0.00,,,0.06,weatherlink.com 1.10,2013-10-19 00:40:00,
2013-10-18 20:55:00,47.9,43.0,29.88,WSW,250,0.0,1.0,83,0.00,,,0.06,weatherlink.com 1.10,2013-10-19 00:55:00,
2013-10-18 21:10:00,47.8,43.0,29.88,WSW,250,0.0,1.0,84,0.00,,,0.06,weatherlink.com 1.10,2013-10-19 01:10:00,
2013-10-18 21:25:00,48.2,43.0,29.88,South,187,0.0,3.0,83,0.00,,,0.06,weatherlink.com 1.10,2013-10-19 01:25:00,
2013-10-18 21:40:00,48.1,43.0,29.88,WSW,241,0.0,1.0,83,0.00,,,0.06,weatherlink.com 1.10,2013-10-19 01:40:00,
2013-10-18 21:55:00,47.9,43.0,29.88,WSW,257,0.0,0.0,84,0.00,,,0.06,weatherlink.com 1.10,2013-10-19 01:55:00,
2013-10-18 22:10:00,48.0,43.0,29.89,WSW,257,0.0,1.0,83,0.00,,,0.06,weatherlink.com 1.10,2013-10-19 02:10:00,
2013-10-18 22:25:00,47.5,43.0,29.89,WSW,257,0.0,1.0,84,0.00,,,0.06,weatherlink.com 1.10,2013-10-19 02:25:00,
2013-10-18 22:40:00,46.0,43.0,29.89,WSW,257,0.0,1.0,88,0.00,,,0.06,weatherlink.com 1.10,2013-10-19 02:40:00,
2013-10-18 22:55:00,44.7,42.0,29.89,WSW,257,0.0,0.0,89,0.00,,,0.06,weatherlink.com 1.10,2013-10-19 02:55:00,
2013-10-18 23:11:00,43.9,42.0,29.89,WSW,257,0.0,1.0,91,0.00,,,0.06,weatherlink.com 1.10,2013-10-19 03:11:00,
2013-10-18 23:26:00,43.2,41.0,29.88,WSW,257,0.0,0.0,93,0.00,,,0.06,weatherlink.com 1.10,2013-10-19 03:26:00,
2013-10-18 23:41:00,43.0,41.0,29.88,WSW,257,0.0,0.0,94,0.00,,,0.06,weatherlink.com 1.10,2013-10-19 03:41:00,
2013-10-18 23:56:00,42.5,41.0,29.88,WSW,257,0.0,0.0,95,0.00,,,0.06,weatherlink.com 1.10,2013-10-19 03:56:00,